sensor_id;sensor_type;location;lat;lon;timestamp;P1;durP1;ratioP1;P2;durP2;ratioP2
32872;SDS011;19224;52.462;16.898;2023-04-10T00:02:11;35.28;;;19.35;;
32872;SDS011;19224;52.462;16.898;2023-04-10T00:04:43;30.90;;;19.40;;
32872;SDS011;19224;52.462;16.898;2023-04-10T00:07:16;34.60;;;18.98;;
32872;SDS011;19224;52.462;16.898;2023-04-10T00:09:57;32.90;;;19.10;;
32872;SDS011;19224;52.462;16.898;2023-04-10T00:12:23;29.63;;;18.90;;
32872;SDS011;19224;52.462;16.898;2023-04-10T00:14:58;38.85;;;20.23;;
32872;SDS011;19224;52.462;16.898;2023-04-10T00:17:28;30.85;;;18.00;;
32872;SDS011;19224;52.462;16.898;2023-04-10T00:19:59;30.45;;;18.52;;
32872;SDS011;19224;52.462;16.898;2023-04-10T00:22:34;32.28;;;18.70;;
32872;SDS011;19224;52.462;16.898;2023-04-10T00:25:06;30.92;;;17.87;;
32872;SDS011;19224;52.462;16.898;2023-04-10T00:27:38;30.97;;;17.42;;
32872;SDS011;19224;52.462;16.898;2023-04-10T00:30:17;31.60;;;17.75;;
32872;SDS011;19224;52.462;16.898;2023-04-10T00:32:50;32.85;;;18.37;;
32872;SDS011;19224;52.462;16.898;2023-04-10T00:35:22;30.37;;;17.77;;
32872;SDS011;19224;52.462;16.898;2023-04-10T00:37:55;31.15;;;17.42;;
32872;SDS011;19224;52.462;16.898;2023-04-10T00:40:30;30.12;;;18.48;;
32872;SDS011;19224;52.462;16.898;2023-04-10T00:43:02;30.82;;;17.85;;
32872;SDS011;19224;52.462;16.898;2023-04-10T00:45:36;27.58;;;16.82;;
32872;SDS011;19224;52.462;16.898;2023-04-10T00:48:08;31.65;;;18.67;;
32872;SDS011;19224;52.462;16.898;2023-04-10T00:50:39;25.95;;;17.30;;
32872;SDS011;19224;52.462;16.898;2023-04-10T00:53:10;28.10;;;17.50;;
32872;SDS011;19224;52.462;16.898;2023-04-10T00:55:40;30.45;;;17.50;;
32872;SDS011;19224;52.462;16.898;2023-04-10T00:58:13;28.10;;;16.62;;
32872;SDS011;19224;52.462;16.898;2023-04-10T01:00:43;27.37;;;17.65;;
32872;SDS011;19224;52.462;16.898;2023-04-10T01:03:20;34.20;;;18.37;;
32872;SDS011;19224;52.462;16.898;2023-04-10T01:08:59;29.77;;;17.77;;
32872;SDS011;19224;52.462;16.898;2023-04-10T01:11:54;28.32;;;17.27;;
32872;SDS011;19224;52.462;16.898;2023-04-10T01:15:01;29.80;;;17.67;;
32872;SDS011;19224;52.462;16.898;2023-04-10T01:17:56;29.48;;;17.50;;
32872;SDS011;19224;52.462;16.898;2023-04-10T01:20:38;29.95;;;17.05;;
32872;SDS011;19224;52.462;16.898;2023-04-10T01:34:19;41.00;;;22.67;;
32872;SDS011;19224;52.462;16.898;2023-04-10T01:36:57;30.10;;;17.65;;
32872;SDS011;19224;52.462;16.898;2023-04-10T01:39:34;28.70;;;17.45;;
32872;SDS011;19224;52.462;16.898;2023-04-10T01:42:07;28.55;;;17.57;;
32872;SDS011;19224;52.462;16.898;2023-04-10T01:44:41;27.80;;;16.95;;
32872;SDS011;19224;52.462;16.898;2023-04-10T01:47:14;26.95;;;17.20;;
32872;SDS011;19224;52.462;16.898;2023-04-10T01:49:47;26.20;;;16.82;;
32872;SDS011;19224;52.462;16.898;2023-04-10T01:52:22;28.00;;;18.10;;
32872;SDS011;19224;52.462;16.898;2023-04-10T01:54:55;28.90;;;18.32;;
32872;SDS011;19224;52.462;16.898;2023-04-10T01:57:28;27.13;;;18.52;;
32872;SDS011;19224;52.462;16.898;2023-04-10T01:59:59;25.88;;;16.15;;
32872;SDS011;19224;52.462;16.898;2023-04-10T02:02:31;23.77;;;15.53;;
32872;SDS011;19224;52.462;16.898;2023-04-10T02:05:02;25.25;;;16.15;;
32872;SDS011;19224;52.462;16.898;2023-04-10T02:07:34;28.92;;;17.05;;
32872;SDS011;19224;52.462;16.898;2023-04-10T02:10:21;25.95;;;16.65;;
32872;SDS011;19224;52.462;16.898;2023-04-10T02:13:25;28.52;;;17.90;;
32872;SDS011;19224;52.462;16.898;2023-04-10T02:15:58;28.55;;;17.98;;
32872;SDS011;19224;52.462;16.898;2023-04-10T02:18:32;27.93;;;17.45;;
32872;SDS011;19224;52.462;16.898;2023-04-10T02:21:04;26.02;;;17.07;;
32872;SDS011;19224;52.462;16.898;2023-04-10T02:23:36;24.23;;;15.68;;
32872;SDS011;19224;52.462;16.898;2023-04-10T02:26:07;29.75;;;18.57;;
32872;SDS011;19224;52.462;16.898;2023-04-10T02:28:38;28.73;;;17.55;;
32872;SDS011;19224;52.462;16.898;2023-04-10T02:31:08;30.30;;;18.07;;
32872;SDS011;19224;52.462;16.898;2023-04-10T02:33:38;25.92;;;17.40;;
32872;SDS011;19224;52.462;16.898;2023-04-10T02:36:09;25.55;;;17.10;;
32872;SDS011;19224;52.462;16.898;2023-04-10T02:38:39;29.07;;;17.27;;
32872;SDS011;19224;52.462;16.898;2023-04-10T02:41:10;25.08;;;15.93;;
32872;SDS011;19224;52.462;16.898;2023-04-10T02:43:40;33.88;;;20.05;;
32872;SDS011;19224;52.462;16.898;2023-04-10T02:46:10;36.33;;;24.25;;
32872;SDS011;19224;52.462;16.898;2023-04-10T02:48:40;38.38;;;24.55;;
32872;SDS011;19224;52.462;16.898;2023-04-10T02:51:10;38.35;;;25.88;;
32872;SDS011;19224;52.462;16.898;2023-04-10T02:53:41;39.95;;;24.45;;
32872;SDS011;19224;52.462;16.898;2023-04-10T02:56:11;35.45;;;22.35;;
32872;SDS011;19224;52.462;16.898;2023-04-10T02:58:42;28.47;;;18.42;;
32872;SDS011;19224;52.462;16.898;2023-04-10T03:01:14;25.72;;;16.32;;
32872;SDS011;19224;52.462;16.898;2023-04-10T03:03:44;24.18;;;15.85;;
32872;SDS011;19224;52.462;16.898;2023-04-10T03:06:15;24.12;;;15.75;;
32872;SDS011;19224;52.462;16.898;2023-04-10T03:08:45;26.90;;;16.80;;
32872;SDS011;19224;52.462;16.898;2023-04-10T03:11:15;24.18;;;16.15;;
32872;SDS011;19224;52.462;16.898;2023-04-10T03:13:46;25.82;;;16.30;;
32872;SDS011;19224;52.462;16.898;2023-04-10T03:16:17;27.60;;;16.65;;
32872;SDS011;19224;52.462;16.898;2023-04-10T03:18:47;26.27;;;17.07;;
32872;SDS011;19224;52.462;16.898;2023-04-10T03:21:18;24.55;;;16.42;;
32872;SDS011;19224;52.462;16.898;2023-04-10T03:23:48;26.68;;;16.67;;
32872;SDS011;19224;52.462;16.898;2023-04-10T03:26:19;25.10;;;16.73;;
32872;SDS011;19224;52.462;16.898;2023-04-10T03:28:50;25.48;;;16.10;;
32872;SDS011;19224;52.462;16.898;2023-04-10T03:31:21;27.65;;;16.93;;
32872;SDS011;19224;52.462;16.898;2023-04-10T03:33:51;24.82;;;16.25;;
32872;SDS011;19224;52.462;16.898;2023-04-10T03:36:22;25.80;;;15.90;;
32872;SDS011;19224;52.462;16.898;2023-04-10T03:38:54;22.35;;;15.63;;
32872;SDS011;19224;52.462;16.898;2023-04-10T03:41:24;22.40;;;15.00;;
32872;SDS011;19224;52.462;16.898;2023-04-10T03:43:54;22.32;;;15.53;;
32872;SDS011;19224;52.462;16.898;2023-04-10T03:46:28;22.50;;;15.32;;
32872;SDS011;19224;52.462;16.898;2023-04-10T03:48:58;23.35;;;14.63;;
32872;SDS011;19224;52.462;16.898;2023-04-10T03:51:28;25.88;;;16.82;;
32872;SDS011;19224;52.462;16.898;2023-04-10T03:53:59;28.15;;;17.10;;
32872;SDS011;19224;52.462;16.898;2023-04-10T03:56:30;28.70;;;19.55;;
32872;SDS011;19224;52.462;16.898;2023-04-10T03:59:01;36.03;;;22.17;;
32872;SDS011;19224;52.462;16.898;2023-04-10T04:01:31;34.75;;;22.87;;
32872;SDS011;19224;52.462;16.898;2023-04-10T04:04:02;30.37;;;21.20;;
32872;SDS011;19224;52.462;16.898;2023-04-10T04:06:33;28.92;;;19.77;;
32872;SDS011;19224;52.462;16.898;2023-04-10T04:09:03;30.95;;;19.02;;
32872;SDS011;19224;52.462;16.898;2023-04-10T04:11:34;27.37;;;18.30;;
32872;SDS011;19224;52.462;16.898;2023-04-10T04:14:05;26.93;;;17.07;;
32872;SDS011;19224;52.462;16.898;2023-04-10T04:16:35;26.48;;;17.23;;
32872;SDS011;19224;52.462;16.898;2023-04-10T04:19:06;26.48;;;17.82;;
32872;SDS011;19224;52.462;16.898;2023-04-10T04:21:36;26.85;;;17.12;;
32872;SDS011;19224;52.462;16.898;2023-04-10T04:24:06;27.93;;;17.15;;
32872;SDS011;19224;52.462;16.898;2023-04-10T04:26:36;26.60;;;17.37;;
32872;SDS011;19224;52.462;16.898;2023-04-10T04:29:07;26.85;;;17.35;;
32872;SDS011;19224;52.462;16.898;2023-04-10T04:31:38;27.17;;;17.05;;
32872;SDS011;19224;52.462;16.898;2023-04-10T04:34:08;27.17;;;17.48;;
32872;SDS011;19224;52.462;16.898;2023-04-10T04:36:38;29.05;;;17.55;;
32872;SDS011;19224;52.462;16.898;2023-04-10T04:39:08;29.12;;;17.60;;
32872;SDS011;19224;52.462;16.898;2023-04-10T04:41:38;29.32;;;19.35;;
32872;SDS011;19224;52.462;16.898;2023-04-10T04:44:08;31.80;;;19.75;;
32872;SDS011;19224;52.462;16.898;2023-04-10T04:46:39;28.60;;;18.67;;
32872;SDS011;19224;52.462;16.898;2023-04-10T04:49:09;32.88;;;18.82;;
32872;SDS011;19224;52.462;16.898;2023-04-10T04:51:40;29.37;;;17.30;;
32872;SDS011;19224;52.462;16.898;2023-04-10T04:54:10;27.67;;;16.93;;
32872;SDS011;19224;52.462;16.898;2023-04-10T04:56:40;28.83;;;17.85;;
32872;SDS011;19224;52.462;16.898;2023-04-10T04:59:11;27.48;;;17.73;;
32872;SDS011;19224;52.462;16.898;2023-04-10T05:01:41;28.17;;;17.90;;
32872;SDS011;19224;52.462;16.898;2023-04-10T05:04:12;27.90;;;17.48;;
32872;SDS011;19224;52.462;16.898;2023-04-10T05:06:43;28.45;;;18.20;;
32872;SDS011;19224;52.462;16.898;2023-04-10T05:09:13;27.10;;;17.37;;
32872;SDS011;19224;52.462;16.898;2023-04-10T05:11:43;28.62;;;18.15;;
32872;SDS011;19224;52.462;16.898;2023-04-10T05:14:13;29.07;;;18.92;;
32872;SDS011;19224;52.462;16.898;2023-04-10T05:16:44;31.07;;;18.73;;
32872;SDS011;19224;52.462;16.898;2023-04-10T05:19:14;29.63;;;18.70;;
32872;SDS011;19224;52.462;16.898;2023-04-10T05:21:44;26.62;;;17.02;;
32872;SDS011;19224;52.462;16.898;2023-04-10T05:24:14;28.47;;;17.65;;
32872;SDS011;19224;52.462;16.898;2023-04-10T05:26:45;27.50;;;17.07;;
32872;SDS011;19224;52.462;16.898;2023-04-10T05:29:15;27.67;;;17.05;;
32872;SDS011;19224;52.462;16.898;2023-04-10T05:31:46;27.93;;;18.50;;
32872;SDS011;19224;52.462;16.898;2023-04-10T05:34:16;29.25;;;19.20;;
32872;SDS011;19224;52.462;16.898;2023-04-10T05:36:49;27.10;;;18.32;;
32872;SDS011;19224;52.462;16.898;2023-04-10T05:39:19;26.65;;;17.00;;
32872;SDS011;19224;52.462;16.898;2023-04-10T05:41:50;29.35;;;18.23;;
32872;SDS011;19224;52.462;16.898;2023-04-10T05:44:20;28.40;;;17.87;;
32872;SDS011;19224;52.462;16.898;2023-04-10T05:46:50;28.05;;;17.25;;
32872;SDS011;19224;52.462;16.898;2023-04-10T05:49:20;24.07;;;16.48;;
32872;SDS011;19224;52.462;16.898;2023-04-10T05:51:51;26.82;;;15.72;;
32872;SDS011;19224;52.462;16.898;2023-04-10T05:54:21;26.65;;;16.02;;
32872;SDS011;19224;52.462;16.898;2023-04-10T05:56:52;24.52;;;15.25;;
32872;SDS011;19224;52.462;16.898;2023-04-10T05:59:23;27.05;;;16.55;;
32872;SDS011;19224;52.462;16.898;2023-04-10T06:01:53;22.60;;;14.83;;
32872;SDS011;19224;52.462;16.898;2023-04-10T06:04:25;22.35;;;14.87;;
32872;SDS011;19224;52.462;16.898;2023-04-10T06:06:55;23.60;;;14.98;;
32872;SDS011;19224;52.462;16.898;2023-04-10T06:09:26;20.97;;;13.58;;
32872;SDS011;19224;52.462;16.898;2023-04-10T06:11:56;21.50;;;13.10;;
32872;SDS011;19224;52.462;16.898;2023-04-10T06:14:27;22.93;;;12.95;;
32872;SDS011;19224;52.462;16.898;2023-04-10T06:16:58;19.98;;;12.20;;
32872;SDS011;19224;52.462;16.898;2023-04-10T06:19:28;20.60;;;12.50;;
32872;SDS011;19224;52.462;16.898;2023-04-10T06:21:59;22.77;;;12.58;;
32872;SDS011;19224;52.462;16.898;2023-04-10T06:24:29;21.82;;;12.10;;
32872;SDS011;19224;52.462;16.898;2023-04-10T06:26:59;18.42;;;11.53;;
32872;SDS011;19224;52.462;16.898;2023-04-10T06:29:30;21.60;;;11.83;;
32872;SDS011;19224;52.462;16.898;2023-04-10T06:32:01;19.32;;;11.70;;
32872;SDS011;19224;52.462;16.898;2023-04-10T06:34:31;18.77;;;10.95;;
32872;SDS011;19224;52.462;16.898;2023-04-10T06:37:01;17.32;;;11.20;;
32872;SDS011;19224;52.462;16.898;2023-04-10T06:39:31;23.18;;;12.18;;
32872;SDS011;19224;52.462;16.898;2023-04-10T06:42:02;22.65;;;11.40;;
32872;SDS011;19224;52.462;16.898;2023-04-10T06:44:32;23.40;;;12.35;;
32872;SDS011;19224;52.462;16.898;2023-04-10T06:47:02;20.85;;;11.95;;
32872;SDS011;19224;52.462;16.898;2023-04-10T06:49:33;22.30;;;11.53;;
32872;SDS011;19224;52.462;16.898;2023-04-10T06:52:04;19.05;;;11.33;;
32872;SDS011;19224;52.462;16.898;2023-04-10T06:54:36;22.67;;;11.88;;
32872;SDS011;19224;52.462;16.898;2023-04-10T06:57:06;19.00;;;10.85;;
32872;SDS011;19224;52.462;16.898;2023-04-10T06:59:37;20.25;;;12.10;;
32872;SDS011;19224;52.462;16.898;2023-04-10T07:02:07;21.23;;;11.80;;
32872;SDS011;19224;52.462;16.898;2023-04-10T07:04:38;22.13;;;11.28;;
32872;SDS011;19224;52.462;16.898;2023-04-10T07:07:10;20.68;;;11.05;;
32872;SDS011;19224;52.462;16.898;2023-04-10T07:09:42;16.93;;;11.25;;
32872;SDS011;19224;52.462;16.898;2023-04-10T07:12:12;18.17;;;11.28;;
32872;SDS011;19224;52.462;16.898;2023-04-10T07:14:43;19.32;;;12.10;;
32872;SDS011;19224;52.462;16.898;2023-04-10T07:17:14;22.15;;;11.60;;
32872;SDS011;19224;52.462;16.898;2023-04-10T07:19:44;20.97;;;12.03;;
32872;SDS011;19224;52.462;16.898;2023-04-10T07:22:15;22.82;;;11.78;;
32872;SDS011;19224;52.462;16.898;2023-04-10T07:24:45;20.77;;;11.83;;
32872;SDS011;19224;52.462;16.898;2023-04-10T07:27:16;19.85;;;12.35;;
32872;SDS011;19224;52.462;16.898;2023-04-10T07:29:47;20.90;;;12.20;;
32872;SDS011;19224;52.462;16.898;2023-04-10T07:32:18;19.77;;;12.93;;
32872;SDS011;19224;52.462;16.898;2023-04-10T07:34:49;19.05;;;12.23;;
32872;SDS011;19224;52.462;16.898;2023-04-10T07:37:19;21.82;;;14.18;;
32872;SDS011;19224;52.462;16.898;2023-04-10T07:39:49;22.20;;;14.30;;
32872;SDS011;19224;52.462;16.898;2023-04-10T07:42:20;23.95;;;14.65;;
32872;SDS011;19224;52.462;16.898;2023-04-10T07:44:50;25.70;;;15.70;;
32872;SDS011;19224;52.462;16.898;2023-04-10T07:47:20;25.48;;;16.73;;
32872;SDS011;19224;52.462;16.898;2023-04-10T07:49:51;26.60;;;16.12;;
32872;SDS011;19224;52.462;16.898;2023-04-10T07:52:26;30.75;;;16.75;;
32872;SDS011;19224;52.462;16.898;2023-04-10T07:54:59;23.77;;;15.23;;
32872;SDS011;19224;52.462;16.898;2023-04-10T07:57:32;26.95;;;16.35;;
32872;SDS011;19224;52.462;16.898;2023-04-10T08:00:03;26.62;;;16.50;;
32872;SDS011;19224;52.462;16.898;2023-04-10T08:02:35;27.70;;;16.70;;
32872;SDS011;19224;52.462;16.898;2023-04-10T08:05:07;25.65;;;16.45;;
32872;SDS011;19224;52.462;16.898;2023-04-10T08:07:37;29.05;;;16.62;;
32872;SDS011;19224;52.462;16.898;2023-04-10T08:10:08;29.15;;;16.37;;
32872;SDS011;19224;52.462;16.898;2023-04-10T08:12:39;27.75;;;15.78;;
32872;SDS011;19224;52.462;16.898;2023-04-10T08:15:09;27.10;;;16.23;;
32872;SDS011;19224;52.462;16.898;2023-04-10T08:17:40;25.97;;;15.58;;
32872;SDS011;19224;52.462;16.898;2023-04-10T08:20:11;27.37;;;16.73;;
32872;SDS011;19224;52.462;16.898;2023-04-10T08:22:41;21.95;;;15.20;;
32872;SDS011;19224;52.462;16.898;2023-04-10T08:25:13;23.32;;;14.45;;
32872;SDS011;19224;52.462;16.898;2023-04-10T08:27:43;31.02;;;19.77;;
32872;SDS011;19224;52.462;16.898;2023-04-10T08:30:18;25.05;;;15.68;;
32872;SDS011;19224;52.462;16.898;2023-04-10T08:32:48;24.23;;;14.50;;
32872;SDS011;19224;52.462;16.898;2023-04-10T08:35:18;20.68;;;14.15;;
32872;SDS011;19224;52.462;16.898;2023-04-10T08:37:49;22.40;;;14.35;;
32872;SDS011;19224;52.462;16.898;2023-04-10T08:40:19;28.17;;;14.38;;
32872;SDS011;19224;52.462;16.898;2023-04-10T08:42:50;24.15;;;14.45;;
32872;SDS011;19224;52.462;16.898;2023-04-10T08:45:21;20.23;;;13.72;;
32872;SDS011;19224;52.462;16.898;2023-04-10T08:47:54;17.57;;;10.25;;
32872;SDS011;19224;52.462;16.898;2023-04-10T08:50:32;16.25;;;10.15;;
32872;SDS011;19224;52.462;16.898;2023-04-10T08:53:07;13.88;;;10.30;;
32872;SDS011;19224;52.462;16.898;2023-04-10T08:55:42;18.55;;;11.63;;
32872;SDS011;19224;52.462;16.898;2023-04-10T08:58:18;18.07;;;10.55;;
32872;SDS011;19224;52.462;16.898;2023-04-10T09:00:50;16.07;;;10.48;;
32872;SDS011;19224;52.462;16.898;2023-04-10T09:03:21;16.45;;;10.08;;
32872;SDS011;19224;52.462;16.898;2023-04-10T09:06:01;20.92;;;10.90;;
32872;SDS011;19224;52.462;16.898;2023-04-10T09:08:33;16.65;;;11.45;;
32872;SDS011;19224;52.462;16.898;2023-04-10T09:11:05;19.35;;;13.08;;
32872;SDS011;19224;52.462;16.898;2023-04-10T09:13:37;20.97;;;13.35;;
32872;SDS011;19224;52.462;16.898;2023-04-10T09:16:13;19.98;;;13.00;;
32872;SDS011;19224;52.462;16.898;2023-04-10T09:18:47;21.95;;;13.62;;
32872;SDS011;19224;52.462;16.898;2023-04-10T09:21:19;24.02;;;12.85;;
32872;SDS011;19224;52.462;16.898;2023-04-10T09:23:58;20.15;;;13.10;;
32872;SDS011;19224;52.462;16.898;2023-04-10T09:26:32;22.82;;;13.78;;
32872;SDS011;19224;52.462;16.898;2023-04-10T09:29:03;18.60;;;12.73;;
32872;SDS011;19224;52.462;16.898;2023-04-10T09:31:38;25.05;;;13.55;;
32872;SDS011;19224;52.462;16.898;2023-04-10T09:34:10;22.37;;;14.28;;
32872;SDS011;19224;52.462;16.898;2023-04-10T09:36:44;21.02;;;13.13;;
32872;SDS011;19224;52.462;16.898;2023-04-10T09:39:34;19.23;;;12.35;;
32872;SDS011;19224;52.462;16.898;2023-04-10T09:42:14;20.43;;;13.72;;
32872;SDS011;19224;52.462;16.898;2023-04-10T09:44:44;21.57;;;13.98;;
32872;SDS011;19224;52.462;16.898;2023-04-10T09:52:27;17.75;;;10.58;;
32872;SDS011;19224;52.462;16.898;2023-04-10T09:55:02;16.75;;;10.38;;
32872;SDS011;19224;52.462;16.898;2023-04-10T09:57:35;16.95;;;11.38;;
32872;SDS011;19224;52.462;16.898;2023-04-10T10:00:06;15.00;;;10.00;;
32872;SDS011;19224;52.462;16.898;2023-04-10T10:02:37;16.10;;;10.58;;
32872;SDS011;19224;52.462;16.898;2023-04-10T10:05:09;14.95;;;9.40;;
32872;SDS011;19224;52.462;16.898;2023-04-10T10:07:40;14.33;;;9.05;;
32872;SDS011;19224;52.462;16.898;2023-04-10T10:10:14;16.15;;;9.35;;
32872;SDS011;19224;52.462;16.898;2023-04-10T10:12:58;20.45;;;11.78;;
32872;SDS011;19224;52.462;16.898;2023-04-10T10:21:47;16.97;;;10.00;;
32872;SDS011;19224;52.462;16.898;2023-04-10T10:24:22;19.27;;;10.10;;
32872;SDS011;19224;52.462;16.898;2023-04-10T10:26:54;14.98;;;10.15;;
32872;SDS011;19224;52.462;16.898;2023-04-10T10:29:26;14.05;;;8.55;;
32872;SDS011;19224;52.462;16.898;2023-04-10T10:32:02;11.45;;;7.17;;
32872;SDS011;19224;52.462;16.898;2023-04-10T10:34:36;10.43;;;7.37;;
32872;SDS011;19224;52.462;16.898;2023-04-10T10:37:08;21.93;;;13.20;;
32872;SDS011;19224;52.462;16.898;2023-04-10T10:40:27;17.52;;;10.63;;
32872;SDS011;19224;52.462;16.898;2023-04-10T10:42:37;16.87;;;10.53;;
32872;SDS011;19224;52.462;16.898;2023-04-10T10:45:36;19.45;;;11.22;;
32872;SDS011;19224;52.462;16.898;2023-04-10T10:48:12;18.05;;;12.07;;
32872;SDS011;19224;52.462;16.898;2023-04-10T10:50:57;18.98;;;11.35;;
32872;SDS011;19224;52.462;16.898;2023-04-10T10:53:33;24.90;;;13.78;;
32872;SDS011;19224;52.462;16.898;2023-04-10T10:58:54;23.65;;;14.28;;
32872;SDS011;19224;52.462;16.898;2023-04-10T11:01:25;19.62;;;13.98;;
32872;SDS011;19224;52.462;16.898;2023-04-10T11:03:56;25.37;;;15.98;;
32872;SDS011;19224;52.462;16.898;2023-04-10T11:06:48;25.30;;;16.52;;
32872;SDS011;19224;52.462;16.898;2023-04-10T11:12:17;29.80;;;20.00;;
32872;SDS011;19224;52.462;16.898;2023-04-10T11:15:00;30.88;;;18.73;;
32872;SDS011;19224;52.462;16.898;2023-04-10T11:17:50;30.55;;;19.23;;
32872;SDS011;19224;52.462;16.898;2023-04-10T11:20:22;30.57;;;19.42;;
32872;SDS011;19224;52.462;16.898;2023-04-10T11:23:09;31.70;;;19.70;;
32872;SDS011;19224;52.462;16.898;2023-04-10T11:25:51;33.38;;;21.02;;
32872;SDS011;19224;52.462;16.898;2023-04-10T11:31:18;30.48;;;19.30;;
32872;SDS011;19224;52.462;16.898;2023-04-10T11:36:36;26.80;;;17.73;;
32872;SDS011;19224;52.462;16.898;2023-04-10T11:39:11;26.60;;;17.23;;
32872;SDS011;19224;52.462;16.898;2023-04-10T11:41:45;30.97;;;18.32;;
32872;SDS011;19224;52.462;16.898;2023-04-10T11:47:05;25.77;;;17.75;;
32872;SDS011;19224;52.462;16.898;2023-04-10T11:49:37;27.98;;;18.42;;
32872;SDS011;19224;52.462;16.898;2023-04-10T11:52:13;24.30;;;14.70;;
32872;SDS011;19224;52.462;16.898;2023-04-10T11:54:48;22.02;;;13.85;;
32872;SDS011;19224;52.462;16.898;2023-04-10T11:57:21;21.37;;;14.87;;
32872;SDS011;19224;52.462;16.898;2023-04-10T11:59:54;20.70;;;12.58;;
32872;SDS011;19224;52.462;16.898;2023-04-10T12:02:25;20.95;;;13.13;;
32872;SDS011;19224;52.462;16.898;2023-04-10T12:04:59;20.40;;;12.10;;
32872;SDS011;19224;52.462;16.898;2023-04-10T12:07:28;20.77;;;11.78;;
32872;SDS011;19224;52.462;16.898;2023-04-10T12:09:58;19.40;;;11.88;;
32872;SDS011;19224;52.462;16.898;2023-04-10T12:12:35;19.35;;;11.63;;
32872;SDS011;19224;52.462;16.898;2023-04-10T12:15:25;17.25;;;11.35;;
32872;SDS011;19224;52.462;16.898;2023-04-10T12:17:57;28.40;;;19.02;;
32872;SDS011;19224;52.462;16.898;2023-04-10T12:20:28;18.52;;;12.47;;
32872;SDS011;19224;52.462;16.898;2023-04-10T12:22:59;19.67;;;12.68;;
32872;SDS011;19224;52.462;16.898;2023-04-10T12:25:30;19.20;;;13.28;;
32872;SDS011;19224;52.462;16.898;2023-04-10T12:28:03;19.73;;;13.30;;
32872;SDS011;19224;52.462;16.898;2023-04-10T12:30:44;19.10;;;13.00;;
32872;SDS011;19224;52.462;16.898;2023-04-10T12:33:25;21.97;;;14.05;;
32872;SDS011;19224;52.462;16.898;2023-04-10T12:35:52;23.02;;;14.45;;
32872;SDS011;19224;52.462;16.898;2023-04-10T12:38:35;23.12;;;14.98;;
32872;SDS011;19224;52.462;16.898;2023-04-10T12:41:12;19.75;;;13.48;;
32872;SDS011;19224;52.462;16.898;2023-04-10T12:43:43;24.30;;;13.40;;
32872;SDS011;19224;52.462;16.898;2023-04-10T12:46:24;23.22;;;12.18;;
32872;SDS011;19224;52.462;16.898;2023-04-10T12:49:07;19.07;;;11.43;;
32872;SDS011;19224;52.462;16.898;2023-04-10T12:51:42;16.42;;;11.40;;
32872;SDS011;19224;52.462;16.898;2023-04-10T12:57:00;20.35;;;12.28;;
32872;SDS011;19224;52.462;16.898;2023-04-10T12:59:31;20.97;;;13.30;;
32872;SDS011;19224;52.462;16.898;2023-04-10T13:02:01;17.07;;;12.00;;
32872;SDS011;19224;52.462;16.898;2023-04-10T13:04:34;15.32;;;11.57;;
32872;SDS011;19224;52.462;16.898;2023-04-10T13:07:04;16.62;;;11.30;;
32872;SDS011;19224;52.462;16.898;2023-04-10T13:09:35;15.70;;;11.03;;
32872;SDS011;19224;52.462;16.898;2023-04-10T13:12:06;16.48;;;11.18;;
32872;SDS011;19224;52.462;16.898;2023-04-10T13:14:52;13.15;;;9.28;;
32872;SDS011;19224;52.462;16.898;2023-04-10T13:17:23;14.58;;;8.18;;
32872;SDS011;19224;52.462;16.898;2023-04-10T13:19:54;18.87;;;11.35;;
32872;SDS011;19224;52.462;16.898;2023-04-10T13:22:24;14.93;;;10.80;;
32872;SDS011;19224;52.462;16.898;2023-04-10T13:24:55;14.80;;;10.50;;
32872;SDS011;19224;52.462;16.898;2023-04-10T13:27:26;14.68;;;9.80;;
32872;SDS011;19224;52.462;16.898;2023-04-10T13:29:56;15.88;;;10.00;;
32872;SDS011;19224;52.462;16.898;2023-04-10T13:32:27;13.70;;;9.33;;
32872;SDS011;19224;52.462;16.898;2023-04-10T13:34:57;14.03;;;10.32;;
32872;SDS011;19224;52.462;16.898;2023-04-10T13:37:28;12.53;;;9.33;;
32872;SDS011;19224;52.462;16.898;2023-04-10T13:39:58;12.63;;;8.93;;
32872;SDS011;19224;52.462;16.898;2023-04-10T13:42:29;13.30;;;8.60;;
32872;SDS011;19224;52.462;16.898;2023-04-10T13:44:59;20.62;;;13.32;;
32872;SDS011;19224;52.462;16.898;2023-04-10T13:47:29;12.95;;;8.88;;
32872;SDS011;19224;52.462;16.898;2023-04-10T13:50:00;11.90;;;8.33;;
32872;SDS011;19224;52.462;16.898;2023-04-10T13:52:36;8.78;;;6.67;;
32872;SDS011;19224;52.462;16.898;2023-04-10T13:55:06;8.50;;;6.80;;
32872;SDS011;19224;52.462;16.898;2023-04-10T13:57:37;12.98;;;8.10;;
32872;SDS011;19224;52.462;16.898;2023-04-10T14:00:08;12.88;;;9.23;;
32872;SDS011;19224;52.462;16.898;2023-04-10T14:02:39;16.12;;;9.80;;
32872;SDS011;19224;52.462;16.898;2023-04-10T14:05:11;16.45;;;10.98;;
32872;SDS011;19224;52.462;16.898;2023-04-10T14:07:42;13.72;;;9.40;;
32872;SDS011;19224;52.462;16.898;2023-04-10T14:10:12;14.33;;;9.40;;
32872;SDS011;19224;52.462;16.898;2023-04-10T14:12:42;11.55;;;8.00;;
32872;SDS011;19224;52.462;16.898;2023-04-10T14:15:13;11.40;;;8.83;;
32872;SDS011;19224;52.462;16.898;2023-04-10T14:17:44;12.10;;;8.00;;
32872;SDS011;19224;52.462;16.898;2023-04-10T14:20:14;9.83;;;8.18;;
32872;SDS011;19224;52.462;16.898;2023-04-10T14:22:44;11.22;;;8.05;;
32872;SDS011;19224;52.462;16.898;2023-04-10T14:25:15;10.50;;;7.05;;
32872;SDS011;19224;52.462;16.898;2023-04-10T14:27:45;9.10;;;7.30;;
32872;SDS011;19224;52.462;16.898;2023-04-10T14:30:16;12.10;;;7.45;;
32872;SDS011;19224;52.462;16.898;2023-04-10T14:32:46;7.75;;;6.60;;
32872;SDS011;19224;52.462;16.898;2023-04-10T14:35:17;9.23;;;6.80;;
32872;SDS011;19224;52.462;16.898;2023-04-10T14:37:48;13.68;;;8.85;;
32872;SDS011;19224;52.462;16.898;2023-04-10T14:40:20;17.60;;;10.40;;
32872;SDS011;19224;52.462;16.898;2023-04-10T14:42:50;8.53;;;6.17;;
32872;SDS011;19224;52.462;16.898;2023-04-10T14:45:25;9.20;;;6.85;;
32872;SDS011;19224;52.462;16.898;2023-04-10T14:47:56;11.60;;;7.03;;
32872;SDS011;19224;52.462;16.898;2023-04-10T14:50:27;10.38;;;6.90;;
32872;SDS011;19224;52.462;16.898;2023-04-10T14:52:59;11.12;;;7.28;;
32872;SDS011;19224;52.462;16.898;2023-04-10T14:55:29;8.73;;;6.60;;
32872;SDS011;19224;52.462;16.898;2023-04-10T14:58:00;11.95;;;7.50;;
32872;SDS011;19224;52.462;16.898;2023-04-10T15:00:30;9.10;;;8.13;;
32872;SDS011;19224;52.462;16.898;2023-04-10T15:03:01;8.88;;;7.58;;
32872;SDS011;19224;52.462;16.898;2023-04-10T15:05:32;9.20;;;7.70;;
32872;SDS011;19224;52.462;16.898;2023-04-10T15:08:03;11.95;;;8.35;;
32872;SDS011;19224;52.462;16.898;2023-04-10T15:10:36;11.65;;;8.58;;
32872;SDS011;19224;52.462;16.898;2023-04-10T15:13:08;10.58;;;8.25;;
32872;SDS011;19224;52.462;16.898;2023-04-10T15:15:39;9.70;;;8.13;;
32872;SDS011;19224;52.462;16.898;2023-04-10T15:18:15;12.37;;;8.35;;
32872;SDS011;19224;52.462;16.898;2023-04-10T15:20:45;11.88;;;8.50;;
32872;SDS011;19224;52.462;16.898;2023-04-10T15:23:15;10.65;;;8.00;;
32872;SDS011;19224;52.462;16.898;2023-04-10T15:25:46;9.63;;;7.62;;